createdAt,value
2019-01-14T00:01:41.647Z,5.80
2019-01-14T00:04:09.209Z,5.60
2019-01-14T00:06:36.464Z,5.30
2019-01-14T00:09:07.473Z,5.30
2019-01-14T00:11:34.733Z,5.10
2019-01-14T00:14:01.979Z,5.00
2019-01-14T00:16:32.064Z,5.00
2019-01-14T00:19:01.860Z,4.90
2019-01-14T00:21:29.241Z,4.90
2019-01-14T00:24:08.872Z,4.90
2019-01-14T00:26:35.114Z,5.00
2019-01-14T00:29:02.732Z,5.00
2019-01-14T00:31:31.972Z,4.90
2019-01-14T00:33:59.761Z,4.80
2019-01-14T00:36:27.242Z,4.60
2019-01-14T00:38:56.549Z,4.40
2019-01-14T00:41:24.049Z,4.30
2019-01-14T00:43:59.122Z,4.30
2019-01-14T00:46:26.489Z,4.30
2019-01-14T00:49:00.292Z,4.30
2019-01-14T00:51:30.745Z,4.30
2019-01-14T00:54:00.703Z,4.10
2019-01-14T00:56:29.893Z,4.10
2019-01-14T00:58:57.913Z,4.10
2019-01-14T01:01:26.448Z,4.10
2019-01-14T01:03:53.961Z,4.10
2019-01-14T01:06:24.690Z,4.10
2019-01-14T01:08:50.471Z,4.20
2019-01-14T01:11:18.045Z,4.10
2019-01-14T01:13:45.296Z,4.10
2019-01-14T01:16:12.857Z,4.20
2019-01-14T01:18:40.172Z,4.10
2019-01-14T01:21:07.488Z,4.10
2019-01-14T01:23:34.754Z,4.10
2019-01-14T01:26:02.016Z,4.20
2019-01-14T01:28:30.048Z,4.20
2019-01-14T01:30:57.372Z,4.30
2019-01-14T01:33:24.956Z,4.40
2019-01-14T01:35:52.537Z,4.40
2019-01-14T01:38:19.798Z,4.40
2019-01-14T01:40:47.026Z,4.40
2019-01-14T01:43:14.593Z,4.40
2019-01-14T01:45:41.826Z,4.30
2019-01-14T01:48:09.108Z,4.30
2019-01-14T01:50:36.625Z,4.00
2019-01-14T01:53:03.886Z,4.00
2019-01-14T01:55:31.117Z,3.90
2019-01-14T01:57:58.381Z,3.80
2019-01-14T02:00:25.625Z,3.70
2019-01-14T02:02:53.217Z,3.50
2019-01-14T02:05:20.557Z,3.50
2019-01-14T02:07:48.056Z,3.50
2019-01-14T02:10:17.581Z,3.50
2019-01-14T02:12:45.177Z,3.50
2019-01-14T02:15:13.237Z,3.50
2019-01-14T02:17:41.481Z,3.60
2019-01-14T02:20:09.476Z,3.50
2019-01-14T02:22:36.727Z,3.50
2019-01-14T02:25:05.034Z,3.50
2019-01-14T02:27:32.365Z,3.70
2019-01-14T02:29:59.625Z,3.70
2019-01-14T02:32:26.887Z,3.70
2019-01-14T02:34:54.247Z,3.80
2019-01-14T02:37:21.490Z,3.90
2019-01-14T02:39:49.145Z,4.10
2019-01-14T02:42:16.382Z,4.30
2019-01-14T02:44:43.642Z,4.20
2019-01-14T02:47:10.878Z,4.20
2019-01-14T02:49:38.142Z,4.10
2019-01-14T02:52:05.385Z,4.10
2019-01-14T02:54:33.849Z,4.10
2019-01-14T02:57:10.427Z,4.10
2019-01-14T02:59:37.885Z,4.10
2019-01-14T03:02:10.230Z,4.10
2019-01-14T03:04:45.746Z,4.10
2019-01-14T03:07:13.394Z,4.30
2019-01-14T03:09:41.187Z,4.40
2019-01-14T03:12:08.483Z,4.40
2019-01-14T03:14:35.953Z,4.50
2019-01-14T03:17:08.010Z,4.50
2019-01-14T03:19:36.748Z,4.60
2019-01-14T03:22:06.332Z,4.60
2019-01-14T03:24:36.156Z,4.60
2019-01-14T03:27:05.902Z,4.60
2019-01-14T03:29:44.805Z,4.60
2019-01-14T03:32:21.207Z,4.70
2019-01-14T03:34:48.476Z,4.70
2019-01-14T03:37:15.725Z,4.60
2019-01-14T03:39:42.986Z,4.60
2019-01-14T03:42:10.220Z,4.70
2019-01-14T03:44:37.797Z,4.70
2019-01-14T03:47:05.453Z,4.60
2019-01-14T03:49:41.012Z,4.60
2019-01-14T03:52:11.637Z,4.60
2019-01-14T03:54:38.986Z,4.60
2019-01-14T03:57:08.976Z,4.50
2019-01-14T03:59:36.568Z,4.70
2019-01-14T04:02:03.800Z,4.80
2019-01-14T04:04:31.172Z,4.80
2019-01-14T04:06:58.840Z,4.90
2019-01-14T04:09:26.537Z,5.00
2019-01-14T04:11:53.866Z,5.10
2019-01-14T04:14:21.129Z,5.10
2019-01-14T04:16:48.365Z,5.10
2019-01-14T04:19:15.588Z,5.00
2019-01-14T04:21:42.845Z,4.90
2019-01-14T04:24:10.103Z,4.90
2019-01-14T04:26:38.078Z,4.80
2019-01-14T04:29:05.321Z,4.80
2019-01-14T04:31:32.889Z,4.90
2019-01-14T04:34:00.125Z,5.00
2019-01-14T04:36:27.380Z,5.00
2019-01-14T04:38:54.820Z,5.00
2019-01-14T04:41:22.087Z,5.00
2019-01-14T04:43:49.330Z,5.10
2019-01-14T04:46:16.696Z,5.00
2019-01-14T04:48:43.999Z,4.90
2019-01-14T04:51:11.354Z,4.80
2019-01-14T04:53:38.583Z,4.70
2019-01-14T04:56:05.853Z,4.70
2019-01-14T04:58:33.417Z,4.70
2019-01-14T05:01:01.061Z,4.70
2019-01-14T05:03:28.295Z,4.60
2019-01-14T05:05:55.553Z,4.60
2019-01-14T05:08:22.797Z,4.70
2019-01-14T05:10:50.165Z,4.70
2019-01-14T05:13:17.403Z,4.60
2019-01-14T05:15:44.953Z,4.50
2019-01-14T05:18:12.617Z,4.50
2019-01-14T05:20:39.877Z,4.40
2019-01-14T05:23:07.114Z,4.40
2019-01-14T05:25:34.678Z,4.50
2019-01-14T05:28:01.909Z,4.40
2019-01-14T05:30:29.488Z,4.40
2019-01-14T05:32:56.722Z,4.60
2019-01-14T05:35:23.985Z,4.70
2019-01-14T05:37:51.221Z,4.70
2019-01-14T05:40:23.164Z,4.80
2019-01-14T05:42:50.416Z,4.80
2019-01-14T05:45:17.681Z,5.00
2019-01-14T05:47:45.369Z,5.00
2019-01-14T05:50:12.780Z,5.10
2019-01-14T05:52:40.065Z,5.10
2019-01-14T05:55:07.618Z,5.20
2019-01-14T05:57:34.876Z,5.20
2019-01-14T06:00:02.526Z,5.20
2019-01-14T06:02:29.788Z,5.10
2019-01-14T06:04:57.366Z,5.10
2019-01-14T06:07:24.649Z,5.10
2019-01-14T06:09:52.484Z,5.10
2019-01-14T06:12:21.030Z,5.20
2019-01-14T06:14:48.376Z,5.10
2019-01-14T06:17:15.636Z,5.10
2019-01-14T06:19:43.180Z,5.10
2019-01-14T06:22:10.436Z,5.10
2019-01-14T06:24:37.937Z,5.10
2019-01-14T06:27:05.199Z,5.20
2019-01-14T06:29:32.428Z,5.20
2019-01-14T06:31:59.701Z,5.20
2019-01-14T06:34:26.937Z,5.10
2019-01-14T06:36:54.558Z,5.00
2019-01-14T06:39:22.061Z,5.00
2019-01-14T06:41:49.316Z,5.00
2019-01-14T06:44:16.556Z,5.00
2019-01-14T06:46:44.126Z,5.00
2019-01-14T06:49:11.357Z,5.00
2019-01-14T06:51:38.636Z,5.00
2019-01-14T06:54:06.185Z,4.90
2019-01-14T06:56:33.743Z,4.80
2019-01-14T06:59:00.985Z,4.80
2019-01-14T07:01:28.270Z,4.80
2019-01-14T07:03:55.815Z,4.80
2019-01-14T07:06:23.198Z,4.90
2019-01-14T07:08:50.450Z,5.00
2019-01-14T07:11:18.821Z,4.90
2019-01-14T07:13:46.349Z,4.90
2019-01-14T07:16:13.610Z,4.90
2019-01-14T07:18:40.849Z,5.00
2019-01-14T07:21:08.109Z,5.00
2019-01-14T07:23:35.345Z,5.00
2019-01-14T07:26:02.681Z,5.00
2019-01-14T07:28:30.290Z,5.00
2019-01-14T07:30:57.521Z,4.90
2019-01-14T07:33:25.148Z,4.90
2019-01-14T07:35:52.641Z,5.00
2019-01-14T07:38:19.901Z,4.90
2019-01-14T07:40:47.759Z,4.90
2019-01-14T07:43:15.117Z,4.80
2019-01-14T07:45:42.561Z,4.90
2019-01-14T07:48:10.541Z,5.00
2019-01-14T07:50:37.940Z,4.90
2019-01-14T07:53:05.505Z,5.00
2019-01-14T07:55:33.013Z,4.90
2019-01-14T07:58:00.269Z,4.90
2019-01-14T08:00:27.500Z,5.00
2019-01-14T08:02:54.760Z,5.00
2019-01-14T08:05:22.085Z,5.00
2019-01-14T08:07:49.828Z,5.00
2019-01-14T08:10:17.056Z,5.00
2019-01-14T08:12:44.325Z,5.00
2019-01-14T08:15:13.789Z,4.90
2019-01-14T08:17:41.058Z,4.90
2019-01-14T08:20:09.116Z,4.90
2019-01-14T08:22:36.685Z,4.90
2019-01-14T08:25:04.601Z,4.90
2019-01-14T08:27:31.870Z,4.80
2019-01-14T08:29:59.111Z,4.90
2019-01-14T08:32:26.700Z,4.90
2019-01-14T08:34:54.261Z,5.00
2019-01-14T08:37:21.521Z,5.00
2019-01-14T08:39:48.753Z,5.00
2019-01-14T08:42:16.733Z,5.10
2019-01-14T08:44:44.072Z,5.30
2019-01-14T08:47:11.364Z,5.30
2019-01-14T08:49:38.606Z,5.50
2019-01-14T08:52:05.874Z,5.50
2019-01-14T08:54:33.201Z,5.40
2019-01-14T08:57:00.436Z,5.40
2019-01-14T08:59:27.705Z,5.40
2019-01-14T09:01:54.938Z,5.40
2019-01-14T09:04:24.311Z,5.30
2019-01-14T09:06:51.372Z,5.30
2019-01-14T09:09:18.637Z,5.20
2019-01-14T09:11:46.209Z,5.30
2019-01-14T09:14:13.472Z,5.30
2019-01-14T09:16:41.022Z,5.30
2019-01-14T09:19:08.289Z,5.20
2019-01-14T09:21:36.145Z,5.20
2019-01-14T09:24:03.567Z,5.20
2019-01-14T09:26:30.797Z,5.20
2019-01-14T09:28:58.618Z,5.20
2019-01-14T09:31:25.882Z,5.30
2019-01-14T09:33:53.341Z,5.20
2019-01-14T09:36:20.593Z,5.40
2019-01-14T09:38:47.861Z,5.50
2019-01-14T09:41:15.094Z,5.60
2019-01-14T09:43:42.349Z,5.50
2019-01-14T09:46:09.595Z,5.60
2019-01-14T09:48:36.948Z,5.60
2019-01-14T09:51:04.213Z,5.60
2019-01-14T09:53:31.473Z,5.60
2019-01-14T09:55:58.713Z,5.70
2019-01-14T09:58:25.979Z,5.90
2019-01-14T10:00:53.303Z,5.90
2019-01-14T10:03:20.573Z,6.00
2019-01-14T10:05:47.832Z,6.00
2019-01-14T10:08:15.221Z,6.00
2019-01-14T10:10:42.452Z,6.10
2019-01-14T10:13:09.717Z,6.10
2019-01-14T10:15:37.626Z,6.10
2019-01-14T10:18:05.527Z,6.10
2019-01-14T10:20:32.843Z,6.10
2019-01-14T10:23:00.513Z,6.20
2019-01-14T10:25:27.744Z,6.20
2019-01-14T10:27:55.316Z,6.20
2019-01-14T10:30:22.618Z,6.10
2019-01-14T10:32:49.893Z,6.20
2019-01-14T10:35:17.261Z,6.30
2019-01-14T10:37:44.509Z,6.20
2019-01-14T10:40:12.696Z,6.20
2019-01-14T10:42:40.265Z,6.10
2019-01-14T10:45:11.501Z,6.10
2019-01-14T10:47:39.169Z,6.10
2019-01-14T10:50:07.731Z,6.10
2019-01-14T10:52:35.072Z,6.20
2019-01-14T10:55:03.038Z,6.20
2019-01-14T10:57:30.402Z,6.20
2019-01-14T10:59:57.678Z,6.20
2019-01-14T11:02:24.914Z,6.20
2019-01-14T11:04:52.171Z,6.20
2019-01-14T11:07:19.409Z,6.30
2019-01-14T11:09:46.673Z,6.30
2019-01-14T11:12:14.244Z,6.30
2019-01-14T11:14:41.508Z,6.40
2019-01-14T11:17:08.745Z,6.40
2019-01-14T11:19:36.004Z,6.20
2019-01-14T11:22:03.765Z,6.10
2019-01-14T11:24:49.145Z,6.00
2019-01-14T11:27:17.369Z,5.90
2019-01-14T11:29:52.002Z,5.80
2019-01-14T11:32:20.728Z,5.90
2019-01-14T11:34:48.015Z,5.80
2019-01-14T11:37:15.257Z,5.80
2019-01-14T11:39:42.525Z,5.70
2019-01-14T11:42:09.760Z,5.70
2019-01-14T11:44:37.100Z,5.80
2019-01-14T11:47:04.649Z,5.70
2019-01-14T11:49:31.915Z,5.90
2019-01-14T11:51:59.149Z,5.90
2019-01-14T11:54:27.200Z,6.00
2019-01-14T11:56:54.464Z,5.90
2019-01-14T11:59:21.772Z,5.90
2019-01-14T12:01:49.597Z,5.80
2019-01-14T12:04:16.853Z,5.80
2019-01-14T12:06:44.401Z,5.70
2019-01-14T12:09:12.271Z,4.50
2019-01-14T12:11:40.446Z,3.70
2019-01-14T12:14:07.714Z,3.20
2019-01-14T12:16:34.956Z,3.20
2019-01-14T12:19:02.222Z,3.10
2019-01-14T12:21:29.452Z,3.20
2019-01-14T12:23:57.017Z,3.30
2019-01-14T12:26:24.356Z,3.40
2019-01-14T12:28:51.612Z,3.40
2019-01-14T12:31:18.857Z,3.50
2019-01-14T12:33:46.094Z,3.60
2019-01-14T12:36:13.365Z,3.80
2019-01-14T12:38:40.592Z,3.80
2019-01-14T12:41:07.861Z,3.80
2019-01-14T12:43:35.174Z,3.90
2019-01-14T12:46:02.434Z,4.00
2019-01-14T12:48:29.695Z,4.20
2019-01-14T12:50:57.196Z,4.20
2019-01-14T12:53:24.428Z,4.20
2019-01-14T12:55:51.692Z,4.10
2019-01-14T12:58:19.249Z,4.10
2019-01-14T13:00:46.528Z,3.90
2019-01-14T13:03:13.765Z,3.80
2019-01-14T13:05:41.341Z,3.90
2019-01-14T13:08:08.577Z,3.80
2019-01-14T13:10:36.158Z,3.70
2019-01-14T13:13:03.391Z,3.50
2019-01-14T13:15:30.669Z,3.50
2019-01-14T13:17:58.185Z,3.50
2019-01-14T13:20:25.529Z,3.60
2019-01-14T13:22:52.760Z,3.60
2019-01-14T13:25:20.205Z,3.60
2019-01-14T13:27:47.445Z,3.80
2019-01-14T13:30:34.240Z,3.90
2019-01-14T13:33:01.792Z,3.90
2019-01-14T13:35:29.732Z,4.00
2019-01-14T13:37:57.262Z,4.20
2019-01-14T13:40:24.618Z,4.10
2019-01-14T13:42:52.108Z,4.10
2019-01-14T13:45:19.998Z,4.10
2019-01-14T13:47:47.657Z,4.20
2019-01-14T13:50:17.236Z,4.30
2019-01-14T13:52:44.462Z,4.30
2019-01-14T13:55:13.693Z,4.30
2019-01-14T13:57:40.968Z,4.20
2019-01-14T14:00:12.859Z,4.10
2019-01-14T14:02:40.461Z,4.10
2019-01-14T14:05:07.705Z,4.20
2019-01-14T14:07:34.973Z,4.30
2019-01-14T14:10:02.733Z,4.50
2019-01-14T14:12:29.992Z,8.00
2019-01-14T14:14:57.220Z,7.00
2019-01-14T14:17:24.481Z,6.00
2019-01-14T14:19:52.046Z,5.40
2019-01-14T14:22:19.308Z,5.10
2019-01-14T14:24:46.627Z,5.00
2019-01-14T14:27:14.230Z,4.80
2019-01-14T14:29:41.464Z,4.70
2019-01-14T14:32:09.738Z,4.60
2019-01-14T14:34:37.298Z,4.70
2019-01-14T14:37:04.858Z,4.80
2019-01-14T14:39:32.093Z,4.70
2019-01-14T14:41:59.668Z,4.80
2019-01-14T14:44:26.896Z,4.80
2019-01-14T14:46:54.154Z,4.60
2019-01-14T14:49:21.408Z,4.60
2019-01-14T14:51:48.981Z,4.60
2019-01-14T14:54:16.216Z,4.60
2019-01-14T14:56:43.472Z,4.70
2019-01-14T14:59:11.053Z,4.70
2019-01-14T15:01:38.425Z,4.80
2019-01-14T15:04:05.657Z,4.80
2019-01-14T15:06:32.937Z,4.80
2019-01-14T15:09:00.458Z,4.80
2019-01-14T15:11:27.789Z,4.70
2019-01-14T15:13:55.456Z,4.60
2019-01-14T15:16:22.725Z,4.60
2019-01-14T15:18:49.956Z,4.60
2019-01-14T15:21:17.128Z,4.50
2019-01-14T15:23:44.374Z,4.30
2019-01-14T15:26:11.660Z,4.20
2019-01-14T15:28:38.993Z,4.20
2019-01-14T15:31:06.220Z,4.10
2019-01-14T15:33:33.509Z,4.10
2019-01-14T15:36:01.049Z,4.10
2019-01-14T15:38:28.348Z,4.20
2019-01-14T15:40:55.619Z,4.10
2019-01-14T15:43:22.965Z,4.10
2019-01-14T15:45:50.197Z,4.00
2019-01-14T15:48:17.489Z,4.10
2019-01-14T15:50:45.069Z,3.90
2019-01-14T15:53:12.330Z,3.90
2019-01-14T15:55:39.560Z,4.00
2019-01-14T15:58:06.841Z,4.10
2019-01-14T16:00:34.177Z,4.20
2019-01-14T16:03:01.468Z,4.20
2019-01-14T16:05:28.990Z,4.20
2019-01-14T16:07:56.304Z,4.20
2019-01-14T16:10:24.980Z,4.20
2019-01-14T16:12:52.313Z,4.30
2019-01-14T16:15:19.570Z,4.20
2019-01-14T16:17:47.090Z,4.20
2019-01-14T16:20:16.353Z,4.20
2019-01-14T16:22:43.952Z,4.20
2019-01-14T16:25:11.193Z,4.20
2019-01-14T16:27:38.725Z,4.20
2019-01-14T16:30:10.509Z,4.10
2019-01-14T16:32:37.800Z,4.10
2019-01-14T16:35:05.593Z,4.10
2019-01-14T16:37:32.882Z,4.10
2019-01-14T16:40:00.464Z,4.20
2019-01-14T16:42:27.951Z,4.20
2019-01-14T16:44:55.465Z,4.10
2019-01-14T16:47:24.368Z,4.20
2019-01-14T16:49:51.601Z,4.20
2019-01-14T16:52:18.885Z,4.20
2019-01-14T16:54:46.173Z,4.20
2019-01-14T16:57:13.506Z,4.10
2019-01-14T16:59:40.833Z,4.20
2019-01-14T17:02:08.481Z,4.20
2019-01-14T17:04:36.058Z,4.10
2019-01-14T17:07:03.404Z,3.90
2019-01-14T17:09:30.681Z,3.80
2019-01-14T17:11:57.920Z,3.80
2019-01-14T17:14:25.601Z,3.60
2019-01-14T17:16:52.836Z,3.60
2019-01-14T17:19:20.121Z,3.60
2019-01-14T17:21:47.372Z,3.60
2019-01-14T17:24:14.978Z,3.50
2019-01-14T17:26:42.257Z,3.60
2019-01-14T17:29:09.541Z,3.60
2019-01-14T17:31:36.776Z,3.70
2019-01-14T17:34:04.169Z,3.80
2019-01-14T17:36:31.396Z,3.70
2019-01-14T17:38:58.685Z,3.70
2019-01-14T17:41:27.064Z,3.70
2019-01-14T17:43:54.626Z,3.80
2019-01-14T17:46:22.201Z,3.80
2019-01-14T17:48:49.848Z,3.80
2019-01-14T17:51:17.309Z,3.80
2019-01-14T17:53:44.597Z,3.80
2019-01-14T17:56:11.824Z,3.90
2019-01-14T17:58:39.473Z,3.90
2019-01-14T18:01:06.704Z,3.70
2019-01-14T18:03:33.993Z,3.90
2019-01-14T18:06:01.224Z,3.80
2019-01-14T18:08:28.537Z,3.90
2019-01-14T18:11:01.619Z,3.80
2019-01-14T18:13:25.235Z,3.70
2019-01-14T18:15:52.481Z,3.50
2019-01-14T18:18:19.853Z,3.20
2019-01-14T18:20:47.397Z,3.00
2019-01-14T18:23:17.152Z,3.00
2019-01-14T18:25:47.657Z,2.80
2019-01-14T18:28:15.202Z,2.70
2019-01-14T18:30:42.510Z,2.40
2019-01-14T18:33:10.002Z,2.30
2019-01-14T18:35:37.565Z,2.10
2019-01-14T18:38:05.129Z,2.00
2019-01-14T18:40:34.060Z,2.00
2019-01-14T18:43:01.545Z,2.10
2019-01-14T18:45:29.133Z,2.20
2019-01-14T18:47:56.365Z,2.30
2019-01-14T18:50:24.557Z,2.40
2019-01-14T18:52:51.797Z,2.70
2019-01-14T18:55:19.083Z,3.00
2019-01-14T18:57:46.493Z,3.10
2019-01-14T19:00:17.477Z,3.10
2019-01-14T19:02:44.909Z,3.30
2019-01-14T19:05:12.197Z,3.30
2019-01-14T19:07:39.433Z,3.40
2019-01-14T19:10:07.601Z,3.40
2019-01-14T19:12:34.845Z,3.50
2019-01-14T19:15:02.137Z,3.50
2019-01-14T19:17:30.062Z,3.50
2019-01-14T19:19:57.357Z,3.60
2019-01-14T19:22:24.693Z,3.50
2019-01-14T19:24:51.993Z,3.40
2019-01-14T19:27:19.582Z,3.50
2019-01-14T19:29:46.883Z,3.60
2019-01-14T19:32:14.231Z,3.60
2019-01-14T19:34:41.627Z,3.50
2019-01-14T19:37:08.873Z,3.50
2019-01-14T19:39:36.176Z,3.50
2019-01-14T19:42:03.711Z,3.60
2019-01-14T19:44:31.771Z,3.60
2019-01-14T19:46:59.337Z,3.70
2019-01-14T19:49:26.896Z,3.70
2019-01-14T19:51:54.557Z,3.70
2019-01-14T19:54:22.116Z,3.60
2019-01-14T19:56:50.293Z,3.40
2019-01-14T19:59:17.954Z,3.20
2019-01-14T20:01:45.249Z,3.00
2019-01-14T20:04:12.496Z,2.90
2019-01-14T20:06:39.793Z,2.70
2019-01-14T20:09:07.682Z,2.60
2019-01-14T20:11:35.109Z,2.40
2019-01-14T20:14:02.693Z,2.30
2019-01-14T20:16:29.994Z,2.10
2019-01-14T20:18:57.246Z,1.90
2019-01-14T20:21:24.537Z,2.00
2019-01-14T20:23:52.376Z,1.90
2019-01-14T20:26:20.159Z,1.70
2019-01-14T20:28:47.393Z,1.70
2019-01-14T20:31:14.700Z,1.60
2019-01-14T20:33:42.241Z,1.60
2019-01-14T20:36:09.549Z,1.60
2019-01-14T20:38:36.804Z,1.60
2019-01-14T20:41:04.200Z,1.70
2019-01-14T20:43:34.025Z,1.60
2019-01-14T20:46:04.362Z,1.70
2019-01-14T20:49:07.962Z,1.60
2019-01-14T20:51:35.608Z,1.50
2019-01-14T20:54:03.172Z,1.40
2019-01-14T20:56:30.822Z,1.40
2019-01-14T20:58:58.117Z,1.60
2019-01-14T21:01:25.412Z,1.50
2019-01-14T21:03:52.993Z,1.60
2019-01-14T21:06:20.334Z,1.70
2019-01-14T21:08:47.683Z,1.80
2019-01-14T21:11:15.264Z,1.80
2019-01-14T21:13:42.519Z,1.80
2019-01-14T21:16:09.918Z,1.90
2019-01-14T21:18:37.166Z,2.00
2019-01-14T21:21:04.781Z,2.00
2019-01-14T21:23:32.028Z,1.90
2019-01-14T21:25:59.585Z,1.90
2019-01-14T21:28:26.828Z,1.90
2019-01-14T21:30:55.005Z,2.00
2019-01-14T21:33:22.584Z,2.10
2019-01-14T21:35:49.854Z,2.10
2019-01-14T21:38:17.092Z,2.10
2019-01-14T21:40:44.637Z,2.20
2019-01-14T21:43:11.899Z,2.30
2019-01-14T21:45:39.582Z,2.30
2019-01-14T21:48:06.818Z,2.40
2019-01-14T21:50:34.062Z,2.40
2019-01-14T21:53:01.612Z,2.40
2019-01-14T21:55:29.163Z,2.40
2019-01-14T21:57:56.548Z,2.50
2019-01-14T22:00:24.345Z,2.60
2019-01-14T22:02:51.627Z,2.50
2019-01-14T22:05:19.340Z,2.50
2019-01-14T22:07:46.634Z,2.50
2019-01-14T22:10:16.429Z,2.60
2019-01-14T22:12:43.709Z,2.50
2019-01-14T22:15:11.072Z,2.50
2019-01-14T22:17:38.348Z,2.60
2019-01-14T22:20:09.369Z,2.50
2019-01-14T22:22:36.653Z,2.60
2019-01-14T22:25:05.013Z,2.50
2019-01-14T22:27:32.680Z,2.60
2019-01-14T22:29:59.921Z,2.50
2019-01-14T22:32:27.188Z,2.50
2019-01-14T22:34:54.453Z,2.40
2019-01-14T22:37:22.116Z,2.30
2019-01-14T22:39:49.636Z,2.30
2019-01-14T22:42:17.216Z,2.30
2019-01-14T22:44:44.448Z,2.20
2019-01-14T22:47:12.138Z,2.20
2019-01-14T22:49:41.957Z,2.30
2019-01-14T22:52:09.301Z,2.40
2019-01-14T22:54:36.809Z,2.50
2019-01-14T22:57:04.711Z,2.50
2019-01-14T22:59:32.098Z,2.50
2019-01-14T23:01:59.717Z,2.40
2019-01-14T23:04:26.968Z,2.40
2019-01-14T23:06:54.216Z,2.40
2019-01-14T23:09:21.481Z,2.40
2019-01-14T23:11:53.192Z,2.30
2019-01-14T23:14:19.745Z,2.30
2019-01-14T23:16:46.984Z,2.30
2019-01-14T23:19:14.237Z,2.20
2019-01-14T23:21:46.187Z,2.10
2019-01-14T23:24:21.269Z,2.20
2019-01-14T23:26:48.821Z,2.20
2019-01-14T23:29:16.092Z,2.30
2019-01-14T23:31:43.629Z,2.40
2019-01-14T23:34:10.886Z,2.40
2019-01-14T23:36:38.117Z,2.40
2019-01-14T23:39:08.200Z,2.30
2019-01-14T23:41:35.440Z,2.30
2019-01-14T23:44:02.801Z,2.10
2019-01-14T23:46:30.041Z,2.10
2019-01-14T23:48:57.773Z,1.90
2019-01-14T23:51:25.012Z,1.90
2019-01-14T23:53:52.636Z,1.80
2019-01-14T23:56:19.974Z,1.70
2019-01-14T23:58:47.265Z,2.00
